sensor_id;sensor_type;location;lat;lon;timestamp;P1;durP1;ratioP1;P2;durP2;ratioP2
63259;SDS011;49390;51.380;0.098;2023-09-18T00:00:08;7.70;;;4.13;;
63259;SDS011;49390;51.380;0.098;2023-09-18T00:03:01;8.82;;;4.32;;
63259;SDS011;49390;51.380;0.098;2023-09-18T00:05:31;8.23;;;3.92;;
63259;SDS011;49390;51.380;0.098;2023-09-18T00:07:59;7.20;;;4.15;;
63259;SDS011;49390;51.380;0.098;2023-09-18T00:10:30;8.38;;;4.10;;
63259;SDS011;49390;51.380;0.098;2023-09-18T00:13:00;9.60;;;4.50;;
63259;SDS011;49390;51.380;0.098;2023-09-18T00:15:30;8.68;;;4.13;;
63259;SDS011;49390;51.380;0.098;2023-09-18T00:17:59;7.65;;;4.07;;
63259;SDS011;49390;51.380;0.098;2023-09-18T00:20:27;6.78;;;3.70;;
63259;SDS011;49390;51.380;0.098;2023-09-18T00:22:56;8.48;;;3.63;;
63259;SDS011;49390;51.380;0.098;2023-09-18T00:25:24;6.78;;;3.55;;
63259;SDS011;49390;51.380;0.098;2023-09-18T00:27:52;9.05;;;3.70;;
63259;SDS011;49390;51.380;0.098;2023-09-18T00:30:21;7.55;;;3.70;;
63259;SDS011;49390;51.380;0.098;2023-09-18T00:32:50;7.72;;;3.50;;
63259;SDS011;49390;51.380;0.098;2023-09-18T00:35:19;5.32;;;3.30;;
63259;SDS011;49390;51.380;0.098;2023-09-18T00:37:47;5.53;;;2.80;;
63259;SDS011;49390;51.380;0.098;2023-09-18T00:40:15;6.18;;;2.90;;
63259;SDS011;49390;51.380;0.098;2023-09-18T00:42:46;5.93;;;2.80;;
63259;SDS011;49390;51.380;0.098;2023-09-18T00:45:15;8.18;;;2.60;;
63259;SDS011;49390;51.380;0.098;2023-09-18T00:47:43;5.75;;;2.30;;
63259;SDS011;49390;51.380;0.098;2023-09-18T00:50:12;3.60;;;2.15;;
63259;SDS011;49390;51.380;0.098;2023-09-18T00:55:00;5.50;;;2.38;;
63259;SDS011;49390;51.380;0.098;2023-09-18T00:57:31;4.97;;;2.38;;
63259;SDS011;49390;51.380;0.098;2023-09-18T00:59:59;5.32;;;2.30;;
63259;SDS011;49390;51.380;0.098;2023-09-18T01:02:30;5.50;;;2.38;;
63259;SDS011;49390;51.380;0.098;2023-09-18T01:04:58;5.18;;;2.50;;
63259;SDS011;49390;51.380;0.098;2023-09-18T01:07:27;4.55;;;2.28;;
63259;SDS011;49390;51.380;0.098;2023-09-18T01:09:58;4.70;;;2.53;;
63259;SDS011;49390;51.380;0.098;2023-09-18T01:17:38;5.78;;;2.38;;
63259;SDS011;49390;51.380;0.098;2023-09-18T01:20:13;7.78;;;2.95;;
63259;SDS011;49390;51.380;0.098;2023-09-18T01:22:42;6.32;;;2.75;;
63259;SDS011;49390;51.380;0.098;2023-09-18T01:25:11;6.78;;;2.97;;
63259;SDS011;49390;51.380;0.098;2023-09-18T01:27:39;7.22;;;2.78;;
63259;SDS011;49390;51.380;0.098;2023-09-18T01:30:07;7.00;;;2.60;;
63259;SDS011;49390;51.380;0.098;2023-09-18T01:32:38;6.63;;;2.55;;
63259;SDS011;49390;51.380;0.098;2023-09-18T01:36:59;6.38;;;2.75;;
63259;SDS011;49390;51.380;0.098;2023-09-18T01:39:28;8.05;;;2.75;;
63259;SDS011;49390;51.380;0.098;2023-09-18T01:41:59;7.40;;;2.83;;
63259;SDS011;49390;51.380;0.098;2023-09-18T01:44:29;9.87;;;2.90;;
63259;SDS011;49390;51.380;0.098;2023-09-18T01:47:06;5.93;;;2.58;;
63259;SDS011;49390;51.380;0.098;2023-09-18T01:49:37;5.25;;;2.45;;
63259;SDS011;49390;51.380;0.098;2023-09-18T01:52:09;6.90;;;2.30;;
63259;SDS011;49390;51.380;0.098;2023-09-18T01:54:38;7.05;;;2.90;;
63259;SDS011;49390;51.380;0.098;2023-09-18T01:57:08;6.03;;;2.65;;
63259;SDS011;49390;51.380;0.098;2023-09-18T01:59:36;6.28;;;2.35;;
63259;SDS011;49390;51.380;0.098;2023-09-18T02:02:09;4.65;;;2.38;;
63259;SDS011;49390;51.380;0.098;2023-09-18T02:04:50;6.50;;;2.70;;
63259;SDS011;49390;51.380;0.098;2023-09-18T02:07:36;6.50;;;2.50;;
63259;SDS011;49390;51.380;0.098;2023-09-18T02:10:05;5.28;;;2.38;;
63259;SDS011;49390;51.380;0.098;2023-09-18T02:12:34;5.63;;;2.53;;
63259;SDS011;49390;51.380;0.098;2023-09-18T02:15:02;6.47;;;2.80;;
63259;SDS011;49390;51.380;0.098;2023-09-18T02:17:34;6.18;;;2.67;;
63259;SDS011;49390;51.380;0.098;2023-09-18T02:20:04;5.88;;;2.60;;
63259;SDS011;49390;51.380;0.098;2023-09-18T02:22:41;5.38;;;2.83;;
63259;SDS011;49390;51.380;0.098;2023-09-18T02:25:14;7.72;;;2.83;;
63259;SDS011;49390;51.380;0.098;2023-09-18T02:27:42;6.78;;;2.72;;
63259;SDS011;49390;51.380;0.098;2023-09-18T02:30:12;6.03;;;2.55;;
63259;SDS011;49390;51.380;0.098;2023-09-18T02:32:40;6.50;;;2.80;;
63259;SDS011;49390;51.380;0.098;2023-09-18T02:35:09;4.72;;;2.40;;
63259;SDS011;49390;51.380;0.098;2023-09-18T02:37:37;6.70;;;3.08;;
63259;SDS011;49390;51.380;0.098;2023-09-18T02:40:07;9.05;;;2.85;;
63259;SDS011;49390;51.380;0.098;2023-09-18T02:42:35;6.10;;;2.90;;
63259;SDS011;49390;51.380;0.098;2023-09-18T02:45:04;7.25;;;2.85;;
63259;SDS011;49390;51.380;0.098;2023-09-18T02:47:32;7.00;;;2.70;;
63259;SDS011;49390;51.380;0.098;2023-09-18T02:50:02;5.22;;;2.50;;
63259;SDS011;49390;51.380;0.098;2023-09-18T02:52:31;7.82;;;2.90;;
63259;SDS011;49390;51.380;0.098;2023-09-18T02:55:00;6.68;;;3.20;;
63259;SDS011;49390;51.380;0.098;2023-09-18T02:57:31;7.28;;;2.80;;
63259;SDS011;49390;51.380;0.098;2023-09-18T02:59:59;8.75;;;2.95;;
63259;SDS011;49390;51.380;0.098;2023-09-18T03:02:30;5.72;;;2.78;;
63259;SDS011;49390;51.380;0.098;2023-09-18T03:07:27;6.03;;;2.70;;
63259;SDS011;49390;51.380;0.098;2023-09-18T03:09:57;7.60;;;3.10;;
63259;SDS011;49390;51.380;0.098;2023-09-18T03:12:25;7.47;;;3.45;;
63259;SDS011;49390;51.380;0.098;2023-09-18T03:14:53;7.05;;;2.95;;
63259;SDS011;49390;51.380;0.098;2023-09-18T03:17:22;8.45;;;3.40;;
63259;SDS011;49390;51.380;0.098;2023-09-18T03:19:50;6.68;;;3.13;;
63259;SDS011;49390;51.380;0.098;2023-09-18T03:22:19;6.07;;;3.10;;
63259;SDS011;49390;51.380;0.098;2023-09-18T03:24:53;8.60;;;3.90;;
63259;SDS011;49390;51.380;0.098;2023-09-18T03:27:21;11.43;;;3.65;;
63259;SDS011;49390;51.380;0.098;2023-09-18T03:29:57;6.38;;;3.45;;
63259;SDS011;49390;51.380;0.098;2023-09-18T03:32:26;6.88;;;3.33;;
63259;SDS011;49390;51.380;0.098;2023-09-18T03:34:54;7.57;;;3.20;;
63259;SDS011;49390;51.380;0.098;2023-09-18T03:37:22;7.15;;;3.30;;
63259;SDS011;49390;51.380;0.098;2023-09-18T03:39:51;10.15;;;3.65;;
63259;SDS011;49390;51.380;0.098;2023-09-18T03:42:19;7.60;;;3.42;;
63259;SDS011;49390;51.380;0.098;2023-09-18T03:44:47;7.95;;;3.60;;
63259;SDS011;49390;51.380;0.098;2023-09-18T03:47:15;8.68;;;3.67;;
63259;SDS011;49390;51.380;0.098;2023-09-18T03:49:44;9.48;;;4.28;;
63259;SDS011;49390;51.380;0.098;2023-09-18T03:52:12;10.10;;;3.40;;
63259;SDS011;49390;51.380;0.098;2023-09-18T03:54:42;8.63;;;3.67;;
63259;SDS011;49390;51.380;0.098;2023-09-18T03:57:11;10.60;;;4.07;;
63259;SDS011;49390;51.380;0.098;2023-09-18T03:59:39;9.23;;;3.70;;
63259;SDS011;49390;51.380;0.098;2023-09-18T04:02:07;11.32;;;3.90;;
63259;SDS011;49390;51.380;0.098;2023-09-18T04:04:35;9.10;;;3.88;;
63259;SDS011;49390;51.380;0.098;2023-09-18T04:07:07;10.40;;;4.22;;
63259;SDS011;49390;51.380;0.098;2023-09-18T04:09:39;7.63;;;3.97;;
63259;SDS011;49390;51.380;0.098;2023-09-18T04:12:09;10.47;;;4.40;;
63259;SDS011;49390;51.380;0.098;2023-09-18T04:14:38;10.77;;;4.00;;
63259;SDS011;49390;51.380;0.098;2023-09-18T04:17:08;12.27;;;4.18;;
63259;SDS011;49390;51.380;0.098;2023-09-18T04:19:39;10.82;;;4.35;;
63259;SDS011;49390;51.380;0.098;2023-09-18T04:22:07;12.07;;;3.92;;
63259;SDS011;49390;51.380;0.098;2023-09-18T04:24:35;11.00;;;3.60;;
63259;SDS011;49390;51.380;0.098;2023-09-18T04:27:03;9.77;;;4.35;;
63259;SDS011;49390;51.380;0.098;2023-09-18T04:29:32;9.50;;;3.55;;
63259;SDS011;49390;51.380;0.098;2023-09-18T04:32:00;11.27;;;4.10;;
63259;SDS011;49390;51.380;0.098;2023-09-18T04:34:28;7.15;;;3.80;;
63259;SDS011;49390;51.380;0.098;2023-09-18T04:36:56;10.15;;;4.20;;
63259;SDS011;49390;51.380;0.098;2023-09-18T04:39:27;10.27;;;3.50;;
63259;SDS011;49390;51.380;0.098;2023-09-18T04:41:58;9.05;;;3.75;;
63259;SDS011;49390;51.380;0.098;2023-09-18T04:44:28;12.10;;;4.20;;
63259;SDS011;49390;51.380;0.098;2023-09-18T04:46:56;11.35;;;4.60;;
63259;SDS011;49390;51.380;0.098;2023-09-18T04:49:25;11.32;;;4.03;;
63259;SDS011;49390;51.380;0.098;2023-09-18T04:51:56;13.55;;;4.22;;
63259;SDS011;49390;51.380;0.098;2023-09-18T04:54:25;12.45;;;4.88;;
63259;SDS011;49390;51.380;0.098;2023-09-18T04:56:53;11.73;;;4.65;;
63259;SDS011;49390;51.380;0.098;2023-09-18T04:59:21;11.13;;;5.10;;
63259;SDS011;49390;51.380;0.098;2023-09-18T05:01:52;9.48;;;5.30;;
63259;SDS011;49390;51.380;0.098;2023-09-18T05:04:22;7.63;;;4.18;;
63259;SDS011;49390;51.380;0.098;2023-09-18T05:06:50;15.13;;;5.45;;
63259;SDS011;49390;51.380;0.098;2023-09-18T05:09:22;10.73;;;5.20;;
63259;SDS011;49390;51.380;0.098;2023-09-18T05:11:53;11.80;;;5.32;;
63259;SDS011;49390;51.380;0.098;2023-09-18T05:14:21;9.82;;;4.88;;
63259;SDS011;49390;51.380;0.098;2023-09-18T05:16:49;10.93;;;5.53;;
63259;SDS011;49390;51.380;0.098;2023-09-18T05:19:17;12.02;;;5.43;;
63259;SDS011;49390;51.380;0.098;2023-09-18T05:21:45;10.88;;;5.53;;
63259;SDS011;49390;51.380;0.098;2023-09-18T05:24:16;12.88;;;5.65;;
63259;SDS011;49390;51.380;0.098;2023-09-18T05:26:55;11.50;;;5.53;;
63259;SDS011;49390;51.380;0.098;2023-09-18T05:29:24;10.52;;;5.60;;
63259;SDS011;49390;51.380;0.098;2023-09-18T05:31:54;13.85;;;6.18;;
63259;SDS011;49390;51.380;0.098;2023-09-18T05:34:22;10.13;;;5.60;;
63259;SDS011;49390;51.380;0.098;2023-09-18T05:36:51;10.95;;;5.45;;
63259;SDS011;49390;51.380;0.098;2023-09-18T05:39:22;11.23;;;5.55;;
63259;SDS011;49390;51.380;0.098;2023-09-18T05:41:55;11.05;;;5.70;;
63259;SDS011;49390;51.380;0.098;2023-09-18T05:44:23;15.02;;;5.90;;
63259;SDS011;49390;51.380;0.098;2023-09-18T05:46:52;12.13;;;5.80;;
63259;SDS011;49390;51.380;0.098;2023-09-18T05:49:20;13.88;;;6.22;;
63259;SDS011;49390;51.380;0.098;2023-09-18T05:51:48;12.70;;;6.10;;
63259;SDS011;49390;51.380;0.098;2023-09-18T05:54:17;14.50;;;6.55;;
63259;SDS011;49390;51.380;0.098;2023-09-18T05:56:45;11.85;;;6.07;;
63259;SDS011;49390;51.380;0.098;2023-09-18T05:59:13;11.77;;;5.95;;
63259;SDS011;49390;51.380;0.098;2023-09-18T06:01:48;11.40;;;5.80;;
63259;SDS011;49390;51.380;0.098;2023-09-18T06:04:17;10.82;;;5.60;;
63259;SDS011;49390;51.380;0.098;2023-09-18T06:06:47;10.95;;;6.50;;
63259;SDS011;49390;51.380;0.098;2023-09-18T06:09:16;9.52;;;6.00;;
63259;SDS011;49390;51.380;0.098;2023-09-18T06:11:44;12.73;;;6.00;;
63259;SDS011;49390;51.380;0.098;2023-09-18T06:14:13;12.70;;;6.18;;
63259;SDS011;49390;51.380;0.098;2023-09-18T06:16:41;12.05;;;6.57;;
63259;SDS011;49390;51.380;0.098;2023-09-18T06:19:12;11.50;;;6.15;;
63259;SDS011;49390;51.380;0.098;2023-09-18T06:21:40;12.25;;;5.85;;
63259;SDS011;49390;51.380;0.098;2023-09-18T06:24:11;11.68;;;6.63;;
63259;SDS011;49390;51.380;0.098;2023-09-18T06:26:41;11.70;;;6.10;;
63259;SDS011;49390;51.380;0.098;2023-09-18T06:29:10;9.45;;;5.65;;
63259;SDS011;49390;51.380;0.098;2023-09-18T06:31:38;11.75;;;6.60;;
63259;SDS011;49390;51.380;0.098;2023-09-18T06:34:06;11.25;;;6.72;;
63259;SDS011;49390;51.380;0.098;2023-09-18T06:36:37;10.60;;;6.35;;
63259;SDS011;49390;51.380;0.098;2023-09-18T06:39:06;11.63;;;6.30;;
63259;SDS011;49390;51.380;0.098;2023-09-18T06:41:37;11.52;;;5.93;;
63259;SDS011;49390;51.380;0.098;2023-09-18T06:44:08;12.10;;;6.15;;
63259;SDS011;49390;51.380;0.098;2023-09-18T06:46:37;11.68;;;5.97;;
63259;SDS011;49390;51.380;0.098;2023-09-18T06:49:05;11.98;;;6.13;;
63259;SDS011;49390;51.380;0.098;2023-09-18T06:51:33;13.40;;;6.30;;
63259;SDS011;49390;51.380;0.098;2023-09-18T06:54:10;10.45;;;6.07;;
63259;SDS011;49390;51.380;0.098;2023-09-18T06:56:38;12.68;;;6.18;;
63259;SDS011;49390;51.380;0.098;2023-09-18T06:59:09;12.55;;;6.47;;
63259;SDS011;49390;51.380;0.098;2023-09-18T07:01:37;13.13;;;6.53;;
63259;SDS011;49390;51.380;0.098;2023-09-18T07:04:08;11.93;;;6.30;;
63259;SDS011;49390;51.380;0.098;2023-09-18T07:06:37;11.50;;;6.13;;
63259;SDS011;49390;51.380;0.098;2023-09-18T07:09:06;12.13;;;6.53;;
63259;SDS011;49390;51.380;0.098;2023-09-18T07:11:34;9.77;;;5.85;;
63259;SDS011;49390;51.380;0.098;2023-09-18T07:14:02;9.25;;;5.95;;
63259;SDS011;49390;51.380;0.098;2023-09-18T07:16:34;9.68;;;5.97;;
63259;SDS011;49390;51.380;0.098;2023-09-18T07:19:02;10.70;;;6.07;;
63259;SDS011;49390;51.380;0.098;2023-09-18T07:21:38;10.85;;;5.65;;
63259;SDS011;49390;51.380;0.098;2023-09-18T07:24:09;12.50;;;5.53;;
63259;SDS011;49390;51.380;0.098;2023-09-18T07:26:37;8.25;;;5.13;;
63259;SDS011;49390;51.380;0.098;2023-09-18T07:29:06;10.75;;;5.20;;
63259;SDS011;49390;51.380;0.098;2023-09-18T07:31:34;9.75;;;5.43;;
63259;SDS011;49390;51.380;0.098;2023-09-18T07:34:03;8.23;;;5.38;;
63259;SDS011;49390;51.380;0.098;2023-09-18T07:36:31;11.38;;;5.07;;
63259;SDS011;49390;51.380;0.098;2023-09-18T07:39:00;9.38;;;5.07;;
63259;SDS011;49390;51.380;0.098;2023-09-18T07:41:28;8.35;;;4.60;;
63259;SDS011;49390;51.380;0.098;2023-09-18T07:43:58;8.43;;;4.53;;
63259;SDS011;49390;51.380;0.098;2023-09-18T07:46:26;9.10;;;4.65;;
63259;SDS011;49390;51.380;0.098;2023-09-18T07:48:55;9.07;;;4.88;;
63259;SDS011;49390;51.380;0.098;2023-09-18T07:51:23;8.88;;;4.43;;
63259;SDS011;49390;51.380;0.098;2023-09-18T07:53:51;10.30;;;4.60;;
63259;SDS011;49390;51.380;0.098;2023-09-18T07:56:19;6.88;;;3.97;;
63259;SDS011;49390;51.380;0.098;2023-09-18T07:58:48;8.07;;;3.80;;
63259;SDS011;49390;51.380;0.098;2023-09-18T08:01:16;7.50;;;3.85;;
63259;SDS011;49390;51.380;0.098;2023-09-18T08:03:44;7.85;;;4.15;;
63259;SDS011;49390;51.380;0.098;2023-09-18T08:06:12;7.65;;;4.18;;
63259;SDS011;49390;51.380;0.098;2023-09-18T08:08:43;8.55;;;4.10;;
63259;SDS011;49390;51.380;0.098;2023-09-18T08:11:11;7.18;;;3.95;;
63259;SDS011;49390;51.380;0.098;2023-09-18T08:13:41;7.50;;;3.88;;
63259;SDS011;49390;51.380;0.098;2023-09-18T08:16:10;8.18;;;3.72;;
63259;SDS011;49390;51.380;0.098;2023-09-18T08:18:44;9.98;;;3.70;;
63259;SDS011;49390;51.380;0.098;2023-09-18T08:21:15;9.02;;;3.20;;
63259;SDS011;49390;51.380;0.098;2023-09-18T08:23:45;6.50;;;3.70;;
63259;SDS011;49390;51.380;0.098;2023-09-18T08:26:13;7.68;;;2.97;;
63259;SDS011;49390;51.380;0.098;2023-09-18T08:28:46;6.38;;;3.40;;
63259;SDS011;49390;51.380;0.098;2023-09-18T08:31:16;9.67;;;3.40;;
63259;SDS011;49390;51.380;0.098;2023-09-18T08:33:45;7.88;;;3.30;;
63259;SDS011;49390;51.380;0.098;2023-09-18T08:36:13;8.60;;;3.25;;
63259;SDS011;49390;51.380;0.098;2023-09-18T08:38:43;11.95;;;3.58;;
63259;SDS011;49390;51.380;0.098;2023-09-18T08:41:11;7.18;;;3.20;;
63259;SDS011;49390;51.380;0.098;2023-09-18T08:43:41;6.55;;;3.25;;
63259;SDS011;49390;51.380;0.098;2023-09-18T08:46:10;8.60;;;3.50;;
63259;SDS011;49390;51.380;0.098;2023-09-18T08:48:41;5.55;;;3.00;;
63259;SDS011;49390;51.380;0.098;2023-09-18T08:51:10;9.93;;;4.05;;
63259;SDS011;49390;51.380;0.098;2023-09-18T08:53:39;7.65;;;3.70;;
63259;SDS011;49390;51.380;0.098;2023-09-18T08:56:10;8.73;;;3.72;;
63259;SDS011;49390;51.380;0.098;2023-09-18T08:58:40;9.98;;;3.85;;
63259;SDS011;49390;51.380;0.098;2023-09-18T09:01:10;8.20;;;3.33;;
63259;SDS011;49390;51.380;0.098;2023-09-18T09:03:42;7.88;;;3.58;;
63259;SDS011;49390;51.380;0.098;2023-09-18T09:06:12;8.30;;;3.45;;
63259;SDS011;49390;51.380;0.098;2023-09-18T09:08:41;9.00;;;3.13;;
63259;SDS011;49390;51.380;0.098;2023-09-18T09:11:09;11.05;;;2.83;;
63259;SDS011;49390;51.380;0.098;2023-09-18T09:13:39;7.70;;;2.85;;
63259;SDS011;49390;51.380;0.098;2023-09-18T09:16:13;5.30;;;2.38;;
63259;SDS011;49390;51.380;0.098;2023-09-18T09:18:51;4.95;;;2.35;;
63259;SDS011;49390;51.380;0.098;2023-09-18T09:21:22;7.45;;;2.50;;
63259;SDS011;49390;51.380;0.098;2023-09-18T09:23:52;7.55;;;3.08;;
63259;SDS011;49390;51.380;0.098;2023-09-18T09:26:21;4.68;;;2.30;;
63259;SDS011;49390;51.380;0.098;2023-09-18T09:28:51;5.15;;;2.10;;
63259;SDS011;49390;51.380;0.098;2023-09-18T09:31:26;4.93;;;2.30;;
63259;SDS011;49390;51.380;0.098;2023-09-18T09:33:57;4.97;;;2.30;;
63259;SDS011;49390;51.380;0.098;2023-09-18T09:36:26;5.07;;;2.30;;
63259;SDS011;49390;51.380;0.098;2023-09-18T09:38:56;4.55;;;2.35;;
63259;SDS011;49390;51.380;0.098;2023-09-18T09:41:28;4.28;;;2.03;;
63259;SDS011;49390;51.380;0.098;2023-09-18T09:43:59;4.53;;;1.90;;
63259;SDS011;49390;51.380;0.098;2023-09-18T09:46:29;4.70;;;2.13;;
63259;SDS011;49390;51.380;0.098;2023-09-18T09:49:02;4.20;;;2.20;;
63259;SDS011;49390;51.380;0.098;2023-09-18T09:51:34;5.80;;;2.00;;
63259;SDS011;49390;51.380;0.098;2023-09-18T09:54:03;3.35;;;1.80;;
63259;SDS011;49390;51.380;0.098;2023-09-18T09:59:12;4.90;;;2.10;;
63259;SDS011;49390;51.380;0.098;2023-09-18T10:01:41;4.85;;;2.28;;
63259;SDS011;49390;51.380;0.098;2023-09-18T10:04:15;6.00;;;2.45;;
63259;SDS011;49390;51.380;0.098;2023-09-18T10:06:50;4.78;;;2.40;;
63259;SDS011;49390;51.380;0.098;2023-09-18T10:09:23;6.95;;;2.47;;
63259;SDS011;49390;51.380;0.098;2023-09-18T10:14:21;6.38;;;2.13;;
63259;SDS011;49390;51.380;0.098;2023-09-18T10:17:17;4.95;;;2.15;;
63259;SDS011;49390;51.380;0.098;2023-09-18T10:19:54;6.32;;;2.60;;
63259;SDS011;49390;51.380;0.098;2023-09-18T10:22:40;4.20;;;2.40;;
63259;SDS011;49390;51.380;0.098;2023-09-18T10:25:14;5.50;;;2.40;;
63259;SDS011;49390;51.380;0.098;2023-09-18T10:27:47;4.30;;;2.00;;
63259;SDS011;49390;51.380;0.098;2023-09-18T10:30:16;3.50;;;1.88;;
63259;SDS011;49390;51.380;0.098;2023-09-18T10:32:45;4.03;;;1.88;;
63259;SDS011;49390;51.380;0.098;2023-09-18T10:35:15;3.22;;;1.92;;
63259;SDS011;49390;51.380;0.098;2023-09-18T10:37:45;3.47;;;1.60;;
63259;SDS011;49390;51.380;0.098;2023-09-18T10:40:15;3.35;;;1.80;;
63259;SDS011;49390;51.380;0.098;2023-09-18T10:42:44;1.90;;;1.45;;
63259;SDS011;49390;51.380;0.098;2023-09-18T10:45:15;3.30;;;1.65;;
63259;SDS011;49390;51.380;0.098;2023-09-18T10:47:43;3.03;;;1.60;;
63259;SDS011;49390;51.380;0.098;2023-09-18T10:50:22;4.10;;;1.80;;
63259;SDS011;49390;51.380;0.098;2023-09-18T10:52:52;2.78;;;1.58;;
63259;SDS011;49390;51.380;0.098;2023-09-18T10:55:21;3.50;;;1.90;;
63259;SDS011;49390;51.380;0.098;2023-09-18T10:57:52;3.55;;;1.70;;
63259;SDS011;49390;51.380;0.098;2023-09-18T11:00:24;3.40;;;2.10;;
63259;SDS011;49390;51.380;0.098;2023-09-18T11:05:28;2.85;;;1.80;;
63259;SDS011;49390;51.380;0.098;2023-09-18T11:11:03;4.78;;;2.10;;
63259;SDS011;49390;51.380;0.098;2023-09-18T11:13:41;4.18;;;2.10;;
63259;SDS011;49390;51.380;0.098;2023-09-18T11:16:13;5.13;;;2.00;;
63259;SDS011;49390;51.380;0.098;2023-09-18T11:21:27;5.28;;;2.25;;
63259;SDS011;49390;51.380;0.098;2023-09-18T11:24:03;3.78;;;1.92;;
63259;SDS011;49390;51.380;0.098;2023-09-18T11:26:42;4.57;;;2.00;;
63259;SDS011;49390;51.380;0.098;2023-09-18T11:29:15;4.93;;;2.20;;
63259;SDS011;49390;51.380;0.098;2023-09-18T11:34:21;3.90;;;2.15;;
63259;SDS011;49390;51.380;0.098;2023-09-18T11:36:55;3.33;;;1.95;;
63259;SDS011;49390;51.380;0.098;2023-09-18T11:44:41;5.88;;;2.10;;
63259;SDS011;49390;51.380;0.098;2023-09-18T11:47:13;3.75;;;1.80;;
63259;SDS011;49390;51.380;0.098;2023-09-18T11:52:22;4.93;;;2.05;;
63259;SDS011;49390;51.380;0.098;2023-09-18T11:54:55;2.90;;;1.48;;
63259;SDS011;49390;51.380;0.098;2023-09-18T11:57:25;2.63;;;1.73;;
63259;SDS011;49390;51.380;0.098;2023-09-18T11:59:55;3.67;;;1.63;;
63259;SDS011;49390;51.380;0.098;2023-09-18T12:02:27;2.38;;;1.42;;
63259;SDS011;49390;51.380;0.098;2023-09-18T12:05:11;2.53;;;1.45;;
63259;SDS011;49390;51.380;0.098;2023-09-18T12:07:39;3.60;;;1.55;;
63259;SDS011;49390;51.380;0.098;2023-09-18T12:10:15;4.32;;;1.85;;
63259;SDS011;49390;51.380;0.098;2023-09-18T12:12:45;3.15;;;1.73;;
63259;SDS011;49390;51.380;0.098;2023-09-18T12:15:16;3.53;;;1.98;;
63259;SDS011;49390;51.380;0.098;2023-09-18T12:17:45;4.13;;;2.20;;
63259;SDS011;49390;51.380;0.098;2023-09-18T12:20:14;4.18;;;1.90;;
63259;SDS011;49390;51.380;0.098;2023-09-18T12:22:49;4.00;;;1.90;;
63259;SDS011;49390;51.380;0.098;2023-09-18T12:25:18;3.92;;;2.00;;
63259;SDS011;49390;51.380;0.098;2023-09-18T12:27:50;4.07;;;1.73;;
63259;SDS011;49390;51.380;0.098;2023-09-18T12:30:20;2.83;;;1.80;;
63259;SDS011;49390;51.380;0.098;2023-09-18T12:32:50;4.05;;;1.90;;
63259;SDS011;49390;51.380;0.098;2023-09-18T12:35:19;4.47;;;2.10;;
63259;SDS011;49390;51.380;0.098;2023-09-18T12:37:47;3.05;;;2.10;;
63259;SDS011;49390;51.380;0.098;2023-09-18T12:40:20;4.43;;;2.10;;
63259;SDS011;49390;51.380;0.098;2023-09-18T12:42:49;3.38;;;2.00;;
63259;SDS011;49390;51.380;0.098;2023-09-18T12:45:18;3.92;;;2.03;;
63259;SDS011;49390;51.380;0.098;2023-09-18T12:47:47;4.15;;;1.90;;
63259;SDS011;49390;51.380;0.098;2023-09-18T12:50:16;3.95;;;2.20;;
63259;SDS011;49390;51.380;0.098;2023-09-18T12:52:44;2.80;;;1.80;;
63259;SDS011;49390;51.380;0.098;2023-09-18T12:55:22;4.50;;;2.40;;
63259;SDS011;49390;51.380;0.098;2023-09-18T12:57:51;5.43;;;2.30;;
63259;SDS011;49390;51.380;0.098;2023-09-18T13:00:20;3.55;;;1.88;;
63259;SDS011;49390;51.380;0.098;2023-09-18T13:02:54;3.47;;;2.00;;
63259;SDS011;49390;51.380;0.098;2023-09-18T13:05:25;4.72;;;2.05;;
63259;SDS011;49390;51.380;0.098;2023-09-18T13:07:54;3.78;;;1.88;;
63259;SDS011;49390;51.380;0.098;2023-09-18T13:10:23;4.72;;;1.75;;
63259;SDS011;49390;51.380;0.098;2023-09-18T13:12:55;3.30;;;1.70;;
63259;SDS011;49390;51.380;0.098;2023-09-18T13:15:30;4.97;;;2.10;;
63259;SDS011;49390;51.380;0.098;2023-09-18T13:18:00;3.10;;;1.75;;
63259;SDS011;49390;51.380;0.098;2023-09-18T13:20:36;2.85;;;1.73;;
63259;SDS011;49390;51.380;0.098;2023-09-18T13:23:04;3.17;;;1.90;;
63259;SDS011;49390;51.380;0.098;2023-09-18T13:25:37;3.13;;;2.10;;
63259;SDS011;49390;51.380;0.098;2023-09-18T13:28:07;2.97;;;1.88;;
63259;SDS011;49390;51.380;0.098;2023-09-18T13:30:37;3.28;;;1.98;;
63259;SDS011;49390;51.380;0.098;2023-09-18T13:33:09;3.22;;;2.20;;
63259;SDS011;49390;51.380;0.098;2023-09-18T13:35:40;4.13;;;2.27;;
63259;SDS011;49390;51.380;0.098;2023-09-18T13:38:09;4.20;;;2.15;;
63259;SDS011;49390;51.380;0.098;2023-09-18T13:40:38;7.25;;;2.30;;
63259;SDS011;49390;51.380;0.098;2023-09-18T13:43:10;3.00;;;2.15;;
63259;SDS011;49390;51.380;0.098;2023-09-18T13:45:40;3.45;;;2.10;;
63259;SDS011;49390;51.380;0.098;2023-09-18T13:48:09;3.40;;;2.30;;
63259;SDS011;49390;51.380;0.098;2023-09-18T13:50:39;4.90;;;2.40;;
63259;SDS011;49390;51.380;0.098;2023-09-18T13:53:07;5.93;;;2.65;;
63259;SDS011;49390;51.380;0.098;2023-09-18T13:55:35;4.25;;;2.38;;
63259;SDS011;49390;51.380;0.098;2023-09-18T13:58:03;5.07;;;2.22;;
63259;SDS011;49390;51.380;0.098;2023-09-18T14:00:31;4.75;;;2.15;;
63259;SDS011;49390;51.380;0.098;2023-09-18T14:03:00;3.83;;;2.33;;
63259;SDS011;49390;51.380;0.098;2023-09-18T14:05:30;7.95;;;2.53;;
63259;SDS011;49390;51.380;0.098;2023-09-18T14:08:01;4.05;;;2.60;;
63259;SDS011;49390;51.380;0.098;2023-09-18T14:10:30;7.28;;;2.63;;
63259;SDS011;49390;51.380;0.098;2023-09-18T14:12:58;5.43;;;2.55;;
63259;SDS011;49390;51.380;0.098;2023-09-18T14:15:26;6.75;;;2.70;;
63259;SDS011;49390;51.380;0.098;2023-09-18T14:17:56;4.93;;;2.60;;
63259;SDS011;49390;51.380;0.098;2023-09-18T14:20:25;4.55;;;2.20;;
63259;SDS011;49390;51.380;0.098;2023-09-18T14:22:52;6.50;;;2.67;;
63259;SDS011;49390;51.380;0.098;2023-09-18T14:25:20;3.65;;;2.33;;
63259;SDS011;49390;51.380;0.098;2023-09-18T14:27:49;6.07;;;2.45;;
63259;SDS011;49390;51.380;0.098;2023-09-18T14:30:17;4.90;;;2.30;;
63259;SDS011;49390;51.380;0.098;2023-09-18T14:32:46;4.80;;;2.63;;
63259;SDS011;49390;51.380;0.098;2023-09-18T14:35:15;6.22;;;2.28;;
63259;SDS011;49390;51.380;0.098;2023-09-18T14:37:43;7.03;;;2.55;;
63259;SDS011;49390;51.380;0.098;2023-09-18T14:40:12;5.38;;;2.38;;
63259;SDS011;49390;51.380;0.098;2023-09-18T14:42:40;6.15;;;2.42;;
63259;SDS011;49390;51.380;0.098;2023-09-18T14:45:08;4.93;;;2.53;;
63259;SDS011;49390;51.380;0.098;2023-09-18T14:47:37;3.72;;;1.98;;
63259;SDS011;49390;51.380;0.098;2023-09-18T14:50:05;5.43;;;2.20;;
63259;SDS011;49390;51.380;0.098;2023-09-18T14:52:34;6.30;;;2.30;;
63259;SDS011;49390;51.380;0.098;2023-09-18T14:55:02;4.63;;;2.17;;
63259;SDS011;49390;51.380;0.098;2023-09-18T14:57:30;4.18;;;2.00;;
63259;SDS011;49390;51.380;0.098;2023-09-18T14:59:58;6.28;;;2.30;;
63259;SDS011;49390;51.380;0.098;2023-09-18T15:02:26;4.20;;;1.90;;
63259;SDS011;49390;51.380;0.098;2023-09-18T15:05:01;3.72;;;2.00;;
63259;SDS011;49390;51.380;0.098;2023-09-18T15:07:34;4.40;;;1.92;;
63259;SDS011;49390;51.380;0.098;2023-09-18T15:10:02;4.78;;;2.20;;
63259;SDS011;49390;51.380;0.098;2023-09-18T15:12:32;3.60;;;2.05;;
63259;SDS011;49390;51.380;0.098;2023-09-18T15:15:00;4.88;;;1.77;;
63259;SDS011;49390;51.380;0.098;2023-09-18T15:17:28;2.72;;;1.73;;
63259;SDS011;49390;51.380;0.098;2023-09-18T15:19:57;4.68;;;1.80;;
63259;SDS011;49390;51.380;0.098;2023-09-18T15:22:25;4.22;;;1.90;;
63259;SDS011;49390;51.380;0.098;2023-09-18T15:24:53;3.63;;;1.60;;
63259;SDS011;49390;51.380;0.098;2023-09-18T15:27:26;3.97;;;1.55;;
63259;SDS011;49390;51.380;0.098;2023-09-18T15:29:54;4.35;;;1.55;;
63259;SDS011;49390;51.380;0.098;2023-09-18T15:32:22;7.35;;;1.80;;
63259;SDS011;49390;51.380;0.098;2023-09-18T15:34:50;2.67;;;1.52;;
63259;SDS011;49390;51.380;0.098;2023-09-18T15:37:18;2.53;;;1.60;;